Time;durP1;ratioP1;P1;durP2;ratioP2;P2;SDS_P1;SDS_P2;PMS_P1;PMS_P2;Temp;Humidity;BMP_temperature;BMP_pressure;BME280_temperature;BME280_humidity;BME280_pressure;Samples;Min_cycle;Max_cycle;Signal;HPM_P1;HPM_P2
2021/01/23 00:01:10;;;;;;;24.85;20.75;;;23.50;31.30;;;;;;5010898;28;20030;-47
2021/01/23 00:03:36;;;;;;;24.08;20.63;;;23.40;31.20;;;;;;4996053;28;20034;-46
2021/01/23 00:06:02;;;;;;;24.15;21.25;;;23.40;31.30;;;;;;4997245;28;20053;-46
2021/01/23 00:08:28;;;;;;;22.60;19.80;;;23.40;31.30;;;;;;4995151;28;20030;-47
2021/01/23 00:10:54;;;;;;;23.38;20.30;;;23.40;31.30;;;;;;5000709;28;20025;-46
2021/01/23 00:13:20;;;;;;;21.58;19.00;;;23.40;31.30;;;;;;5006347;28;20041;-47
2021/01/23 00:15:45;;;;;;;22.75;19.23;;;23.30;31.30;;;;;;5017154;28;20121;-47
2021/01/23 00:18:11;;;;;;;20.42;18.20;;;23.30;31.30;;;;;;5000313;28;20045;-48
2021/01/23 00:20:37;;;;;;;22.90;19.17;;;23.30;31.40;;;;;;5006082;28;20041;-48
2021/01/23 00:23:03;;;;;;;21.60;18.58;;;23.20;31.30;;;;;;4998071;28;20038;-45
2021/01/23 00:25:29;;;;;;;23.05;19.05;;;23.20;31.40;;;;;;5016384;28;20444;-44
2021/01/23 00:27:55;;;;;;;20.75;17.25;;;23.20;31.40;;;;;;5004648;28;20433;-47
2021/01/23 00:30:21;;;;;;;19.77;17.33;;;23.20;31.50;;;;;;5007291;28;20037;-44
2021/01/23 00:32:47;;;;;;;21.42;18.25;;;23.20;31.40;;;;;;4997861;28;20061;-45
2021/01/23 00:35:14;;;;;;;20.80;17.67;;;23.10;31.40;;;;;;5004550;28;20034;-44
2021/01/23 00:37:40;;;;;;;21.30;18.15;;;23.10;31.50;;;;;;4998377;28;20026;-45
2021/01/23 00:40:06;;;;;;;20.52;18.13;;;23.10;31.50;;;;;;5011238;28;20144;-48
2021/01/23 00:42:32;;;;;;;20.15;17.85;;;23.10;31.50;;;;;;5001016;28;20129;-46
2021/01/23 00:44:58;;;;;;;19.58;16.52;;;23.10;31.60;;;;;;5009763;28;20120;-47
2021/01/23 00:47:23;;;;;;;21.95;17.95;;;23.10;31.50;;;;;;5004184;28;20104;-46
2021/01/23 00:49:49;;;;;;;20.30;16.85;;;23.00;31.50;;;;;;5004978;28;20101;-49
2021/01/23 00:52:15;;;;;;;20.10;16.40;;;23.00;31.50;;;;;;5002935;28;20030;-51
2021/01/23 00:54:42;;;;;;;18.58;15.60;;;23.00;31.50;;;;;;4991744;28;20034;-49
2021/01/23 00:57:09;;;;;;;18.13;14.90;;;23.00;31.50;;;;;;4984203;28;20029;-48
2021/01/23 00:59:34;;;;;;;16.73;14.90;;;22.90;31.40;;;;;;5010426;28;20456;-51
2021/01/23 01:02:01;;;;;;;18.05;15.15;;;22.90;31.40;;;;;;4996879;28;20052;-50
2021/01/23 01:04:34;;;;;;;16.02;14.27;;;22.90;31.40;;;;;;4991777;28;20130;-49
2021/01/23 01:07:00;;;;;;;16.48;14.45;;;22.90;31.50;;;;;;4998046;28;20113;-51
2021/01/23 01:09:26;;;;;;;16.90;14.38;;;22.90;31.50;;;;;;4997641;28;20434;-47
2021/01/23 01:11:51;;;;;;;17.08;14.38;;;22.80;31.40;;;;;;5005130;28;20038;-52
2021/01/23 01:14:17;;;;;;;18.25;14.43;;;22.80;31.50;;;;;;4997279;28;20353;-49
2021/01/23 01:16:43;;;;;;;16.42;13.68;;;22.80;31.40;;;;;;5001262;28;20073;-49
2021/01/23 01:19:09;;;;;;;15.23;13.00;;;22.80;31.40;;;;;;4999587;28;20053;-44
2021/01/23 01:21:35;;;;;;;16.05;13.15;;;22.80;31.40;;;;;;5003427;28;20033;-49
2021/01/23 01:24:00;;;;;;;15.65;12.95;;;22.80;31.40;;;;;;5016726;28;20022;-50
2021/01/23 01:26:26;;;;;;;14.75;13.10;;;22.70;31.30;;;;;;5002998;28;20073;-49
2021/01/23 01:28:52;;;;;;;16.65;13.40;;;22.70;31.30;;;;;;5017087;28;20048;-46
2021/01/23 01:31:19;;;;;;;14.75;12.25;;;22.70;31.30;;;;;;4999717;28;20904;-50
2021/01/23 01:33:59;;;;;;;14.23;12.15;;;22.70;31.30;;;;;;5066607;28;20397;-48
2021/01/23 01:36:25;;;;;;;14.60;11.88;;;22.70;31.70;;;;;;5050290;28;20037;-48
2021/01/23 01:38:50;;;;;;;13.77;11.77;;;22.70;31.40;;;;;;5051760;28;20033;-45
2021/01/23 01:41:16;;;;;;;13.90;11.73;;;22.60;31.30;;;;;;5049676;28;20044;-49
2021/01/23 01:43:45;;;;;;;12.95;10.40;;;22.60;31.40;;;;;;5051523;28;20033;-46
2021/01/23 01:46:13;;;;;;;12.02;10.45;;;22.60;31.40;;;;;;5046272;28;20053;-46
2021/01/23 01:48:39;;;;;;;13.38;11.00;;;22.60;31.50;;;;;;5051641;28;20400;-48
2021/01/23 01:51:05;;;;;;;12.55;10.57;;;22.60;31.50;;;;;;5041834;28;20064;-48
2021/01/23 01:53:31;;;;;;;15.00;11.27;;;22.50;31.40;;;;;;5051622;28;20399;-49
2021/01/23 01:55:57;;;;;;;12.57;9.95;;;22.50;31.40;;;;;;5047050;28;20389;-46
2021/01/23 01:58:22;;;;;;;11.77;10.10;;;22.50;31.50;;;;;;5051322;28;20059;-43
2021/01/23 02:00:48;;;;;;;12.10;10.52;;;22.50;31.50;;;;;;5036743;28;20033;-49
2021/01/23 02:03:52;;;;;;;13.38;10.77;;;22.50;31.50;;;;;;5038427;28;20425;-46
2021/01/23 02:06:55;;;;;;;11.38;10.02;;;22.50;31.50;;;;;;5013122;28;20095;-49
2021/01/23 02:09:30;;;;;;;10.65;9.50;;;22.50;31.50;;;;;;5048969;28;20028;-46
2021/01/23 02:12:27;;;;;;;13.30;10.35;;;22.40;31.50;;;;;;5037391;28;20048;-45
2021/01/23 02:15:10;;;;;;;11.60;9.00;;;22.40;31.40;;;;;;5035550;28;20184;-46
2021/01/23 02:18:03;;;;;;;12.68;9.30;;;22.40;31.40;;;;;;5050133;28;20044;-53
2021/01/23 02:21:08;;;;;;;10.60;8.88;;;22.40;31.40;;;;;;5048125;28;20083;-52
2021/01/23 02:23:38;;;;;;;11.18;8.95;;;22.40;31.40;;;;;;5031005;28;20087;-54
2021/01/23 02:26:11;;;;;;;11.68;9.20;;;22.30;31.40;;;;;;5043961;28;20310;-55
2021/01/23 02:29:13;;;;;;;11.25;8.98;;;22.30;31.40;;;;;;5032575;28;20457;-53
2021/01/23 02:31:45;;;;;;;11.60;8.70;;;22.30;31.50;;;;;;5050869;28;20389;-53
2021/01/23 02:34:16;;;;;;;10.07;8.55;;;22.30;31.40;;;;;;5068872;28;20055;-47
2021/01/23 02:36:44;;;;;;;10.85;8.48;;;22.30;31.50;;;;;;5070476;28;20032;-48
2021/01/23 02:39:13;;;;;;;9.48;8.32;;;22.30;31.50;;;;;;5064944;28;20607;-50
2021/01/23 02:41:39;;;;;;;9.77;8.05;;;22.20;31.50;;;;;;5051057;28;20037;-54
2021/01/23 02:44:05;;;;;;;9.75;7.82;;;22.20;31.50;;;;;;5064030;28;20048;-50
2021/01/23 02:46:30;;;;;;;10.30;8.07;;;22.20;31.50;;;;;;5057158;28;20021;-51
2021/01/23 02:48:57;;;;;;;9.70;7.90;;;22.20;31.50;;;;;;5053681;28;20033;-54
2021/01/23 02:51:43;;;;;;;9.85;7.47;;;22.20;31.50;;;;;;5025168;28;20037;-53
2021/01/23 02:54:14;;;;;;;10.55;7.57;;;22.20;31.50;;;;;;5036818;28;20049;-44
2021/01/23 02:56:42;;;;;;;8.35;7.03;;;22.20;31.50;;;;;;5048776;28;20087;-54
2021/01/23 02:59:10;;;;;;;8.07;6.85;;;22.20;31.50;;;;;;5037249;28;20404;-53
2021/01/23 03:01:40;;;;;;;8.52;7.05;;;22.20;31.50;;;;;;5050541;28;20458;-50
2021/01/23 03:04:07;;;;;;;7.65;6.72;;;22.10;31.40;;;;;;5056202;28;20086;-53
2021/01/23 03:06:37;;;;;;;8.55;6.88;;;22.10;31.40;;;;;;5043006;28;20053;-45
2021/01/23 03:09:23;;;;;;;7.43;6.30;;;22.10;31.40;;;;;;5056109;28;20044;-46
2021/01/23 03:11:50;;;;;;;7.82;6.20;;;22.10;31.40;;;;;;5055201;28;20042;-46
2021/01/23 03:14:16;;;;;;;8.85;6.40;;;22.10;31.40;;;;;;5056278;28;20091;-47
2021/01/23 03:16:49;;;;;;;7.53;5.95;;;22.10;31.50;;;;;;5046623;28;20025;-47
2021/01/23 03:19:15;;;;;;;7.88;6.32;;;22.00;31.40;;;;;;5036939;28;20441;-47
2021/01/23 03:21:42;;;;;;;8.48;6.43;;;22.10;31.50;;;;;;5043305;28;20124;-52
2021/01/23 03:24:09;;;;;;;7.50;5.90;;;22.00;31.40;;;;;;5045790;28;20121;-48
2021/01/23 03:26:35;;;;;;;6.25;5.60;;;22.10;31.50;;;;;;5054908;28;20340;-45
2021/01/23 03:29:01;;;;;;;6.90;5.30;;;22.00;31.50;;;;;;5047693;28;20032;-47
2021/01/23 03:31:27;;;;;;;7.60;6.63;;;22.00;31.50;;;;;;5038177;28;20329;-47
2021/01/23 03:33:53;;;;;;;6.63;5.60;;;22.00;31.50;;;;;;5045204;28;20065;-48
2021/01/23 03:36:19;;;;;;;7.68;5.68;;;22.00;31.60;;;;;;5051332;28;20541;-47
2021/01/23 03:38:44;;;;;;;8.07;6.03;;;22.00;31.60;;;;;;5055821;28;20433;-50
2021/01/23 03:41:10;;;;;;;6.88;5.60;;;22.00;31.60;;;;;;5055775;28;20376;-48
2021/01/23 03:43:36;;;;;;;7.03;5.50;;;21.90;32.10;;;;;;5048502;28;20155;-52
2021/01/23 03:46:02;;;;;;;6.55;5.63;;;21.90;31.50;;;;;;5054066;28;20065;-48
2021/01/23 03:48:27;;;;;;;6.35;5.25;;;21.90;31.50;;;;;;5055995;28;20458;-52
2021/01/23 03:50:53;;;;;;;6.90;4.97;;;21.90;31.30;;;;;;5055048;28;20037;-54
2021/01/23 03:53:19;;;;;;;6.10;4.57;;;21.90;31.20;;;;;;5045548;28;20073;-48
2021/01/23 03:55:45;;;;;;;5.00;3.92;;;21.90;31.10;;;;;;5036895;28;20126;-44
2021/01/23 03:58:10;;;;;;;5.18;4.28;;;21.90;31.10;;;;;;5020630;28;20107;-45
2021/01/23 04:00:36;;;;;;;5.28;4.35;;;21.90;31.70;;;;;;5053080;28;20028;-46
2021/01/23 04:03:02;;;;;;;6.63;4.60;;;21.90;31.00;;;;;;5053762;28;20444;-46
2021/01/23 04:05:28;;;;;;;5.05;3.90;;;21.90;31.00;;;;;;5055044;28;20029;-51
2021/01/23 04:07:53;;;;;;;5.00;3.92;;;21.90;31.00;;;;;;5053980;28;20047;-47
2021/01/23 04:10:19;;;;;;;5.75;4.20;;;21.80;30.90;;;;;;5054751;28;20455;-46
2021/01/23 04:12:45;;;;;;;6.07;3.78;;;21.80;30.80;;;;;;5054820;28;20051;-45
2021/01/23 04:15:12;;;;;;;5.20;4.00;;;21.80;30.80;;;;;;5055006;28;20032;-44
2021/01/23 04:17:37;;;;;;;4.38;3.60;;;21.80;30.80;;;;;;5041331;28;20083;-45
2021/01/23 04:20:04;;;;;;;4.78;3.72;;;21.80;30.80;;;;;;5046115;28;20025;-49
2021/01/23 04:22:30;;;;;;;6.22;4.38;;;21.80;30.80;;;;;;5041400;28;20112;-44
2021/01/23 04:24:56;;;;;;;5.50;3.70;;;21.80;30.80;;;;;;5047291;28;20422;-47
2021/01/23 04:27:21;;;;;;;4.05;3.38;;;21.80;30.80;;;;;;5054388;28;20116;-47
2021/01/23 04:29:47;;;;;;;4.40;3.58;;;21.80;30.70;;;;;;5054375;28;20052;-49
2021/01/23 04:32:13;;;;;;;6.25;3.92;;;21.80;30.80;;;;;;5054114;28;20129;-44
2021/01/23 04:34:39;;;;;;;4.80;3.50;;;21.80;30.80;;;;;;5030641;28;20425;-46
2021/01/23 04:37:05;;;;;;;4.05;2.97;;;21.80;30.80;;;;;;5034840;28;20029;-45
2021/01/23 04:39:30;;;;;;;4.82;3.47;;;21.70;30.70;;;;;;5045182;28;20082;-44
2021/01/23 04:41:56;;;;;;;5.07;3.40;;;21.70;30.70;;;;;;5054230;28;20029;-45
2021/01/23 04:44:22;;;;;;;4.82;3.47;;;21.70;30.70;;;;;;5053932;28;20404;-48
2021/01/23 04:46:48;;;;;;;4.38;3.60;;;21.70;30.70;;;;;;5054121;28;20033;-44
2021/01/23 04:49:14;;;;;;;4.40;3.25;;;21.70;30.70;;;;;;5052976;28;20364;-47
2021/01/23 04:51:40;;;;;;;4.18;3.13;;;21.70;30.70;;;;;;5034902;28;20044;-44
2021/01/23 04:54:06;;;;;;;4.93;3.50;;;21.70;30.70;;;;;;5050222;28;20024;-43
2021/01/23 04:56:31;;;;;;;3.70;3.10;;;21.70;30.70;;;;;;5054348;28;20032;-46
2021/01/23 04:58:57;;;;;;;4.07;3.20;;;21.70;30.70;;;;;;5048748;28;20116;-48
2021/01/23 05:01:23;;;;;;;4.97;3.08;;;21.70;30.70;;;;;;5034962;28;20037;-47
2021/01/23 05:03:59;;;;;;;4.55;3.03;;;21.70;30.80;;;;;;5047872;28;20024;-46
2021/01/23 05:06:26;;;;;;;3.63;2.83;;;21.70;30.80;;;;;;5054303;28;20032;-44
2021/01/23 05:08:52;;;;;;;4.85;3.00;;;21.70;30.80;;;;;;5052750;28;20033;-45
2021/01/23 05:11:18;;;;;;;3.85;2.72;;;21.70;30.80;;;;;;5038264;28;20033;-47
2021/01/23 05:14:07;;;;;;;4.10;2.70;;;21.60;30.70;;;;;;5043352;28;20071;-50
2021/01/23 05:16:33;;;;;;;3.40;2.40;;;21.60;30.70;;;;;;5054334;28;20037;-43
2021/01/23 05:19:01;;;;;;;4.55;2.92;;;21.70;30.80;;;;;;5052359;28;20108;-44
2021/01/23 05:21:31;;;;;;;3.33;2.65;;;21.60;30.70;;;;;;5054662;28;20029;-47
2021/01/23 05:24:08;;;;;;;4.32;3.05;;;21.60;30.70;;;;;;5053206;28;20039;-45
2021/01/23 05:26:36;;;;;;;3.70;2.50;;;21.60;30.70;;;;;;5045635;28;20051;-50
2021/01/23 05:29:19;;;;;;;4.43;2.70;;;21.60;30.70;;;;;;5053489;28;20033;-45
2021/01/23 05:31:45;;;;;;;2.75;2.05;;;21.60;30.70;;;;;;5052635;28;20067;-43
2021/01/23 05:34:31;;;;;;;3.85;2.42;;;21.50;30.60;;;;;;5048832;28;20069;-46
2021/01/23 05:36:58;;;;;;;3.78;2.78;;;21.60;30.60;;;;;;5046848;28;20518;-47
2021/01/23 05:39:49;;;;;;;2.83;2.05;;;21.50;30.60;;;;;;5046333;28;20033;-46
2021/01/23 05:42:17;;;;;;;4.47;3.03;;;21.50;30.60;;;;;;5049864;28;20033;-44
2021/01/23 05:45:12;;;;;;;2.92;2.30;;;21.50;30.60;;;;;;5044626;28;20348;-44
2021/01/23 05:47:39;;;;;;;3.20;2.35;;;21.50;30.60;;;;;;5051859;28;20082;-47
2021/01/23 05:50:09;;;;;;;4.20;2.58;;;21.50;30.60;;;;;;5042019;28;20095;-44
2021/01/23 05:52:36;;;;;;;3.55;2.40;;;21.50;31.30;;;;;;5049903;28;20037;-47
2021/01/23 05:55:04;;;;;;;3.50;2.30;;;21.50;30.70;;;;;;5053031;28;20065;-47
2021/01/23 05:57:29;;;;;;;4.57;2.58;;;21.50;30.70;;;;;;5053445;28;20047;-47
2021/01/23 05:59:55;;;;;;;3.53;2.33;;;21.50;30.60;;;;;;5043333;28;20438;-47
2021/01/23 06:02:22;;;;;;;3.30;2.30;;;21.50;30.70;;;;;;5047481;28;20029;-46
2021/01/23 06:04:50;;;;;;;2.47;2.00;;;21.40;30.60;;;;;;5044539;28;20029;-46
2021/01/23 06:07:41;;;;;;;4.07;2.20;;;21.50;30.70;;;;;;5046610;28;20053;-43
2021/01/23 06:10:22;;;;;;;3.33;2.17;;;21.50;30.60;;;;;;5041956;28;20033;-47
2021/01/23 06:12:58;;;;;;;2.65;2.08;;;21.40;30.60;;;;;;5050664;28;20175;-45
2021/01/23 06:15:32;;;;;;;2.30;1.90;;;21.40;30.60;;;;;;5052665;28;20040;-43
2021/01/23 06:17:59;;;;;;;3.85;2.25;;;21.40;30.60;;;;;;5053106;28;20040;-48
2021/01/23 06:20:40;;;;;;;3.55;1.95;;;21.40;30.70;;;;;;5039384;28;20037;-45
2021/01/23 06:23:48;;;;;;;4.60;2.20;;;21.40;30.70;;;;;;5054201;28;20087;-43
2021/01/23 06:26:14;;;;;;;3.30;1.80;;;21.40;30.70;;;;;;5040818;28;20037;-46
2021/01/23 06:28:40;;;;;;;3.50;2.20;;;21.40;30.70;;;;;;5056490;28;20033;-52
2021/01/23 06:31:25;;;;;;;2.67;2.00;;;21.40;30.70;;;;;;5041509;28;20052;-47
2021/01/23 06:33:51;;;;;;;2.38;1.80;;;21.40;30.80;;;;;;5054785;28;20575;-55
2021/01/23 06:36:22;;;;;;;3.90;2.00;;;21.40;30.70;;;;;;5056157;28;20056;-55
2021/01/23 06:39:06;;;;;;;2.60;2.00;;;21.30;30.70;;;;;;5055491;28;20044;-53
2021/01/23 06:41:33;;;;;;;2.85;1.98;;;21.30;30.70;;;;;;5056208;28;20048;-51
2021/01/23 06:44:19;;;;;;;2.90;2.15;;;21.30;30.70;;;;;;5037484;28;20362;-52
2021/01/23 06:47:05;;;;;;;2.75;2.05;;;21.30;30.70;;;;;;5051069;28;20043;-50
2021/01/23 06:49:40;;;;;;;2.38;2.05;;;21.30;30.70;;;;;;5038492;28;20451;-49
2021/01/23 06:52:06;;;;;;;2.63;1.80;;;21.30;30.70;;;;;;5053105;28;20044;-51
2021/01/23 06:54:33;;;;;;;2.35;1.90;;;21.30;30.70;;;;;;5053798;28;20025;-49
2021/01/23 06:56:59;;;;;;;3.03;1.90;;;21.30;30.70;;;;;;5055798;28;20033;-46
2021/01/23 06:59:35;;;;;;;3.42;2.05;;;21.30;30.70;;;;;;5057092;28;20032;-50
2021/01/23 07:02:04;;;;;;;2.90;1.73;;;21.30;30.70;;;;;;5054830;28;20048;-54
2021/01/23 07:04:50;;;;;;;2.80;1.73;;;21.30;30.80;;;;;;5055623;28;20021;-48
2021/01/23 07:07:17;;;;;;;2.67;2.10;;;21.30;30.70;;;;;;5037717;28;20064;-47
2021/01/23 07:09:53;;;;;;;2.28;1.80;;;21.30;30.70;;;;;;5037522;28;20041;-52
2021/01/23 07:12:46;;;;;;;3.38;1.88;;;21.20;30.90;;;;;;5053809;28;20047;-52
2021/01/23 07:15:21;;;;;;;2.50;1.70;;;21.20;30.70;;;;;;5056221;28;20028;-49
2021/01/23 07:17:47;;;;;;;2.25;1.95;;;21.20;31.30;;;;;;5036576;28;20033;-51
2021/01/23 07:20:16;;;;;;;2.20;1.95;;;21.20;30.70;;;;;;5039857;28;20033;-45
2021/01/23 07:22:46;;;;;;;3.58;2.00;;;21.20;30.80;;;;;;5055786;28;20348;-45
2021/01/23 07:25:16;;;;;;;3.42;2.10;;;21.20;30.90;;;;;;5054910;28;20039;-45
2021/01/23 07:27:43;;;;;;;2.50;1.65;;;21.20;30.80;;;;;;5053028;28;20032;-50
2021/01/23 07:30:14;;;;;;;2.38;1.67;;;21.20;30.80;;;;;;5049445;28;20057;-46
2021/01/23 07:32:42;;;;;;;2.53;1.77;;;21.20;30.80;;;;;;5055814;28;20394;-46
2021/01/23 07:35:09;;;;;;;2.85;1.63;;;21.20;30.80;;;;;;5048321;28;20043;-47
2021/01/23 07:37:55;;;;;;;2.28;1.50;;;21.20;30.80;;;;;;5035958;28;20033;-51
2021/01/23 07:40:26;;;;;;;2.08;1.50;;;21.20;30.80;;;;;;5039855;28;20021;-45
2021/01/23 07:42:55;;;;;;;2.55;1.50;;;21.20;30.80;;;;;;5037885;28;20041;-47
2021/01/23 07:45:22;;;;;;;2.28;1.67;;;21.20;30.70;;;;;;5054950;28;20112;-46
2021/01/23 07:48:02;;;;;;;3.03;2.05;;;21.20;30.80;;;;;;5054992;28;20087;-48
2021/01/23 07:50:38;;;;;;;1.98;1.20;;;21.20;30.70;;;;;;5054908;28;20066;-49
2021/01/23 07:53:12;;;;;;;2.70;1.52;;;21.20;30.70;;;;;;5054962;28;20049;-51
2021/01/23 07:55:38;;;;;;;2.70;1.90;;;21.10;30.60;;;;;;5054365;28;20555;-49
2021/01/23 07:58:05;;;;;;;2.40;1.48;;;21.20;30.70;;;;;;5047284;28;20104;-45
2021/01/23 08:00:31;;;;;;;2.00;1.50;;;21.20;31.00;;;;;;5050819;28;20052;-48
2021/01/23 08:02:58;;;;;;;3.10;1.90;;;21.20;31.50;;;;;;5053655;28;20068;-58
2021/01/23 08:05:46;;;;;;;2.33;1.52;;;21.20;31.80;;;;;;5045941;28;20040;-49
2021/01/23 08:08:28;;;;;;;4.72;1.50;;;21.20;31.80;;;;;;5054541;28;20060;-51
2021/01/23 08:10:53;;;;;;;2.17;1.50;;;21.20;31.90;;;;;;5052118;28;20025;-47
2021/01/23 08:13:24;;;;;;;4.40;1.63;;;21.30;31.90;;;;;;5034568;28;20051;-52
2021/01/23 08:15:50;;;;;;;2.70;1.40;;;21.30;31.90;;;;;;5040791;28;20021;-51
2021/01/23 08:18:21;;;;;;;1.58;1.48;;;21.30;31.90;;;;;;5043783;28;20024;-52
2021/01/23 08:20:49;;;;;;;1.90;1.40;;;21.40;31.90;;;;;;5051655;28;20024;-49
2021/01/23 08:23:18;;;;;;;1.90;1.35;;;21.40;31.90;;;;;;5048875;28;20025;-44
2021/01/23 08:25:52;;;;;;;2.22;1.35;;;21.50;31.90;;;;;;5053211;28;20142;-47
2021/01/23 08:28:44;;;;;;;3.42;1.77;;;21.50;31.80;;;;;;5054598;28;20068;-48
2021/01/23 08:31:18;;;;;;;3.20;1.42;;;21.60;31.80;;;;;;5049130;28;20056;-48
2021/01/23 08:33:47;;;;;;;2.72;1.60;;;21.70;31.80;;;;;;5035374;28;20112;-49
2021/01/23 08:36:14;;;;;;;2.72;1.40;;;21.80;31.80;;;;;;5051406;28;20037;-48
2021/01/23 08:38:40;;;;;;;2.35;1.30;;;21.90;31.80;;;;;;5036273;28;20029;-43
2021/01/23 08:41:06;;;;;;;1.98;1.48;;;22.00;31.80;;;;;;5048602;28;20041;-51
2021/01/23 08:43:32;;;;;;;2.13;1.50;;;22.10;31.80;;;;;;5035143;28;20354;-45
2021/01/23 08:45:58;;;;;;;2.80;1.60;;;22.10;31.70;;;;;;5035952;28;20030;-48
2021/01/23 08:48:24;;;;;;;2.25;1.50;;;22.20;31.60;;;;;;5044094;28;20025;-47
2021/01/23 08:50:50;;;;;;;1.80;1.27;;;22.30;31.50;;;;;;5046429;28;20040;-51
2021/01/23 08:53:16;;;;;;;3.40;1.67;;;22.40;31.40;;;;;;5052944;28;20028;-45
2021/01/23 08:55:42;;;;;;;1.55;1.20;;;22.50;31.30;;;;;;5032893;28;20153;-48
2021/01/23 08:58:07;;;;;;;1.35;1.13;;;22.50;31.20;;;;;;5049847;28;20100;-45
2021/01/23 09:00:33;;;;;;;1.23;1.00;;;22.70;31.20;;;;;;5043753;28;20029;-47
2021/01/23 09:03:00;;;;;;;1.90;1.20;;;22.70;31.00;;;;;;5031134;28;20033;-47
2021/01/23 09:05:29;;;;;;;2.28;1.10;;;22.80;30.90;;;;;;5042088;28;20451;-50
2021/01/23 09:07:55;;;;;;;1.90;1.10;;;22.90;30.80;;;;;;5047615;28;20167;-48
2021/01/23 09:10:21;;;;;;;1.30;0.98;;;23.00;30.80;;;;;;5049838;28;20033;-45
2021/01/23 09:12:48;;;;;;;1.70;1.13;;;23.10;30.70;;;;;;5043499;28;20452;-44
2021/01/23 09:15:15;;;;;;;1.77;1.20;;;23.20;30.70;;;;;;5042325;28;20029;-48
2021/01/23 09:17:41;;;;;;;3.45;0.93;;;23.30;30.60;;;;;;5043259;28;20029;-48
2021/01/23 09:20:08;;;;;;;1.63;1.08;;;23.30;30.50;;;;;;5050063;28;20116;-45
2021/01/23 09:22:34;;;;;;;2.13;1.05;;;23.40;30.50;;;;;;5043097;28;20134;-52
2021/01/23 09:25:01;;;;;;;1.48;1.05;;;23.50;30.40;;;;;;5051470;28;20080;-54
2021/01/23 09:27:28;;;;;;;2.83;1.33;;;23.60;30.30;;;;;;5051827;28;20040;-51
2021/01/23 09:29:54;;;;;;;3.08;0.93;;;23.70;30.30;;;;;;5052388;28;20502;-52
2021/01/23 09:32:21;;;;;;;2.03;1.00;;;23.70;30.30;;;;;;5050520;28;20045;-54
2021/01/23 09:34:48;;;;;;;2.28;1.10;;;23.80;30.30;;;;;;5050431;28;20024;-50
2021/01/23 09:37:14;;;;;;;2.30;1.05;;;23.90;30.30;;;;;;5047112;28;20108;-49
2021/01/23 09:39:40;;;;;;;3.03;0.90;;;23.90;30.20;;;;;;5050081;28;20500;-52
2021/01/23 09:42:07;;;;;;;1.50;0.90;;;24.00;30.20;;;;;;5050803;28;20112;-52
2021/01/23 09:44:33;;;;;;;1.92;1.17;;;24.00;30.10;;;;;;5048285;28;20044;-48
2021/01/23 09:46:59;;;;;;;2.10;1.00;;;24.00;30.00;;;;;;5027048;28;20481;-54
2021/01/23 09:49:25;;;;;;;1.75;1.13;;;24.10;30.00;;;;;;5048006;28;20071;-49
2021/01/23 09:51:50;;;;;;;2.45;1.10;;;24.10;30.00;;;;;;5036185;28;20057;-59
2021/01/23 09:54:16;;;;;;;1.95;1.08;;;24.10;30.00;;;;;;5040389;28;20429;-51
2021/01/23 09:56:42;;;;;;;2.30;1.10;;;24.20;30.00;;;;;;5053208;28;20032;-52
2021/01/23 09:59:08;;;;;;;2.95;1.25;;;24.20;30.00;;;;;;5035755;28;20044;-54
2021/01/23 10:01:34;;;;;;;2.90;1.10;;;24.30;30.00;;;;;;5050740;28;20102;-53
2021/01/23 10:04:00;;;;;;;2.22;1.13;;;24.30;30.00;;;;;;5051008;28;20276;-51
2021/01/23 10:06:25;;;;;;;2.85;1.20;;;24.40;30.00;;;;;;5047946;28;20036;-56
2021/01/23 10:08:52;;;;;;;2.42;0.90;;;24.40;30.00;;;;;;5048340;28;20090;-55
2021/01/23 10:11:18;;;;;;;1.70;1.17;;;24.40;30.00;;;;;;5037344;28;20035;-58
2021/01/23 10:13:44;;;;;;;1.95;1.08;;;24.40;29.90;;;;;;5050390;28;20041;-55
2021/01/23 10:16:10;;;;;;;2.17;1.17;;;24.50;29.90;;;;;;5052788;28;20035;-60
2021/01/23 10:18:36;;;;;;;6.05;1.10;;;24.60;30.00;;;;;;5039417;28;20033;-53
2021/01/23 10:21:04;;;;;;;2.50;0.93;;;24.60;29.90;;;;;;5047329;28;20045;-44
2021/01/23 10:23:30;;;;;;;1.42;0.90;;;24.60;29.90;;;;;;5051235;28;20056;-59
2021/01/23 10:25:56;;;;;;;2.42;1.05;;;24.60;29.80;;;;;;5047574;28;20329;-54
2021/01/23 10:28:21;;;;;;;1.73;0.98;;;24.60;29.80;;;;;;5049439;28;20122;-56
2021/01/23 10:30:47;;;;;;;1.08;0.88;;;24.70;29.80;;;;;;5047480;28;20024;-56
2021/01/23 10:33:13;;;;;;;2.20;1.17;;;24.70;29.80;;;;;;5042766;28;20499;-55
2021/01/23 10:35:39;;;;;;;2.28;1.08;;;24.70;29.70;;;;;;5042657;28;20438;-56
2021/01/23 10:38:04;;;;;;;1.52;1.13;;;24.80;29.70;;;;;;5050809;28;20055;-58
2021/01/23 10:40:30;;;;;;;1.10;0.90;;;24.80;29.60;;;;;;5051326;28;20071;-62
2021/01/23 10:42:56;;;;;;;1.85;1.20;;;24.80;29.60;;;;;;5041280;28;20041;-59
2021/01/23 10:45:22;;;;;;;2.38;1.17;;;24.80;29.60;;;;;;5039483;28;20029;-55
2021/01/23 10:47:48;;;;;;;2.08;1.10;;;24.80;29.50;;;;;;5048265;28;20029;-49
2021/01/23 10:50:14;;;;;;;2.35;1.25;;;24.90;29.50;;;;;;5039081;28;20091;-53
2021/01/23 10:52:40;;;;;;;1.70;1.10;;;24.90;29.50;;;;;;5051280;28;20037;-49
2021/01/23 10:55:06;;;;;;;2.15;1.23;;;24.90;29.50;;;;;;5045177;28;20329;-44
2021/01/23 10:57:32;;;;;;;1.77;1.00;;;25.00;29.50;;;;;;5048564;28;20025;-49
2021/01/23 10:59:58;;;;;;;2.13;0.90;;;24.90;29.30;;;;;;5047894;28;20114;-46
2021/01/23 11:02:24;;;;;;;0.98;0.73;;;24.90;29.20;;;;;;5051556;28;20025;-49
2021/01/23 11:04:49;;;;;;;1.52;0.90;;;25.00;29.20;;;;;;5043132;28;20047;-53
2021/01/23 11:07:15;;;;;;;1.90;0.90;;;25.00;29.20;;;;;;5049152;28;20086;-46
2021/01/23 11:09:41;;;;;;;1.30;0.93;;;25.00;29.10;;;;;;5044925;28;20029;-52
2021/01/23 11:12:08;;;;;;;1.50;0.90;;;25.00;29.10;;;;;;5043329;28;20104;-48
2021/01/23 11:14:36;;;;;;;2.45;1.08;;;25.00;29.10;;;;;;5041935;28;20429;-44
2021/01/23 11:17:03;;;;;;;1.77;0.90;;;25.00;29.10;;;;;;5044271;28;20154;-53
2021/01/23 11:19:29;;;;;;;3.20;0.98;;;25.00;29.20;;;;;;5051129;28;20155;-52
2021/01/23 11:21:55;;;;;;;3.03;1.10;;;25.00;29.30;;;;;;5046321;28;20167;-55
2021/01/23 11:24:21;;;;;;;2.30;1.08;;;25.00;29.40;;;;;;5044039;28;20037;-59
2021/01/23 11:26:47;;;;;;;1.35;0.90;;;25.00;29.40;;;;;;5031766;28;20089;-58
2021/01/23 11:29:14;;;;;;;1.90;1.10;;;25.00;29.50;;;;;;5045275;28;20325;-59
2021/01/23 11:31:39;;;;;;;1.60;0.90;;;25.00;29.50;;;;;;5051330;28;20090;-55
2021/01/23 11:34:05;;;;;;;1.85;1.00;;;24.90;29.60;;;;;;5019714;28;20136;-58
2021/01/23 11:36:31;;;;;;;2.53;1.10;;;24.90;29.60;;;;;;5045220;28;20041;-58
2021/01/23 11:38:58;;;;;;;2.67;1.15;;;24.90;29.60;;;;;;5029487;28;20041;-61
2021/01/23 11:41:24;;;;;;;1.60;1.05;;;24.90;29.60;;;;;;5043986;28;20196;-54
2021/01/23 11:43:50;;;;;;;2.00;1.00;;;24.80;29.50;;;;;;5047577;28;20039;-58
2021/01/23 11:46:16;;;;;;;2.50;0.80;;;24.80;29.50;;;;;;5032059;28;20419;-56
2021/01/23 11:48:42;;;;;;;2.22;0.90;;;24.80;29.50;;;;;;5039300;28;20040;-56
2021/01/23 11:51:08;;;;;;;2.60;1.00;;;24.80;29.40;;;;;;5043903;28;20021;-55
2021/01/23 11:53:34;;;;;;;2.00;0.90;;;24.80;29.40;;;;;;5023970;28;20038;-51
2021/01/23 11:55:59;;;;;;;1.38;0.93;;;24.80;29.40;;;;;;5045181;28;20048;-58
2021/01/23 11:58:25;;;;;;;0.77;0.63;;;24.80;29.40;;;;;;5043368;28;20108;-60
2021/01/23 12:00:51;;;;;;;1.70;1.00;;;24.80;29.30;;;;;;5046918;28;20484;-53
2021/01/23 12:03:17;;;;;;;1.23;0.95;;;24.80;29.30;;;;;;5048306;28;20025;-56
2021/01/23 12:05:43;;;;;;;1.63;1.00;;;24.80;29.30;;;;;;5038500;28;20017;-53
2021/01/23 12:08:09;;;;;;;1.40;0.90;;;24.80;29.30;;;;;;5047102;28;20031;-56
2021/01/23 12:10:34;;;;;;;1.77;0.93;;;24.80;29.20;;;;;;5037239;28;20036;-49
2021/01/23 12:13:00;;;;;;;1.55;1.00;;;24.80;29.20;;;;;;5045405;28;20032;-55
2021/01/23 12:15:26;;;;;;;1.02;0.80;;;24.80;29.20;;;;;;5049139;28;20075;-56
2021/01/23 12:17:53;;;;;;;2.72;1.00;;;24.80;29.30;;;;;;5045819;28;20029;-63
2021/01/23 12:20:21;;;;;;;2.50;1.10;;;24.80;29.30;;;;;;5041311;28;20037;-56
2021/01/23 12:22:47;;;;;;;7.50;0.82;;;24.80;29.20;;;;;;5041335;28;20082;-51
2021/01/23 12:25:15;;;;;;;1.83;1.00;;;24.80;29.20;;;;;;5026513;28;20064;-48
2021/01/23 12:27:41;;;;;;;1.33;0.98;;;24.80;29.10;;;;;;5051130;28;20021;-53
2021/01/23 12:30:12;;;;;;;1.35;0.90;;;24.70;29.00;;;;;;5045331;28;20029;-54
2021/01/23 12:32:39;;;;;;;1.73;0.95;;;24.70;29.00;;;;;;5037459;28;20124;-49
2021/01/23 12:35:07;;;;;;;1.83;1.08;;;24.70;29.00;;;;;;5048635;28;20021;-48
2021/01/23 12:37:34;;;;;;;2.38;1.10;;;24.70;28.90;;;;;;5038577;28;20030;-69
2021/01/23 12:40:00;;;;;;;2.40;1.15;;;24.70;29.00;;;;;;5032081;28;20048;-47
2021/01/23 12:42:26;;;;;;;1.73;0.73;;;24.70;28.80;;;;;;5042079;28;20025;-47
2021/01/23 12:44:52;;;;;;;1.77;0.80;;;24.60;28.80;;;;;;5048255;28;20129;-45
2021/01/23 12:47:19;;;;;;;1.58;0.90;;;24.60;28.80;;;;;;5044103;28;20076;-47
2021/01/23 12:49:44;;;;;;;2.03;1.13;;;24.60;28.80;;;;;;5041745;28;20075;-49
2021/01/23 12:52:10;;;;;;;1.65;1.00;;;24.60;28.80;;;;;;5037860;28;20029;-47